Time;durP1;ratioP1;P1;durP2;ratioP2;P2;SDS_P1;SDS_P2;PMS_P1;PMS_P2;Temp;Humidity;BMP_temperature;BMP_pressure;BME280_temperature;BME280_humidity;BME280_pressure;Samples;Min_cycle;Max_cycle;Signal;HPM_P1;HPM_P2
2023/08/21 00:00:23;;;;;;;10.60;5.22;;;;;;;;;;5035515;28;20080;-71
2023/08/21 00:02:48;;;;;;;8.65;5.43;;;;;;;;;;5032668;28;20083;-71
2023/08/21 00:05:14;;;;;;;12.85;5.45;;;;;;;;;;5040327;28;20501;-71
2023/08/21 00:07:40;;;;;;;12.57;5.50;;;;;;;;;;5039716;28;20076;-70
2023/08/21 00:10:06;;;;;;;7.10;5.07;;;;;;;;;;5039987;28;20034;-71
2023/08/21 00:12:32;;;;;;;7.55;4.35;;;;;;;;;;5048310;28;20099;-71
2023/08/21 00:14:58;;;;;;;8.10;4.38;;;;;;;;;;5039619;28;20472;-71
2023/08/21 00:17:23;;;;;;;9.00;4.35;;;;;;;;;;5031214;28;20035;-70
2023/08/21 00:19:49;;;;;;;7.13;4.50;;;;;;;;;;5039724;28;20033;-71
2023/08/21 00:22:15;;;;;;;7.25;4.72;;;;;;;;;;5037670;28;20025;-71
2023/08/21 00:24:41;;;;;;;10.80;4.82;;;;;;;;;;5040541;28;20044;-71
2023/08/21 00:27:06;;;;;;;8.43;4.55;;;;;;;;;;5031560;28;20028;-71
2023/08/21 00:29:32;;;;;;;8.35;4.80;;;;;;;;;;5038510;28;20357;-71
2023/08/21 00:31:58;;;;;;;9.02;4.50;;;;;;;;;;5033694;28;20029;-71
2023/08/21 00:34:24;;;;;;;7.80;5.20;;;;;;;;;;5048218;28;20123;-70
2023/08/21 00:36:49;;;;;;;7.88;4.60;;;;;;;;;;5045024;28;20040;-71
2023/08/21 00:39:15;;;;;;;13.63;5.20;;;;;;;;;;5063526;28;20044;-71
2023/08/21 00:41:42;;;;;;;7.90;4.30;;;;;;;;;;5035754;28;20053;-71
2023/08/21 00:44:07;;;;;;;6.60;4.30;;;;;;;;;;5035593;28;20029;-71
2023/08/21 00:46:34;;;;;;;8.57;4.68;;;;;;;;;;5054028;28;20028;-71
2023/08/21 00:49:00;;;;;;;9.30;5.47;;;;;;;;;;5038194;28;20041;-71
2023/08/21 00:51:26;;;;;;;8.07;4.95;;;;;;;;;;5055453;28;20052;-71
2023/08/21 00:53:52;;;;;;;7.25;4.93;;;;;;;;;;5058367;28;20453;-70
2023/08/21 00:56:19;;;;;;;9.85;5.20;;;;;;;;;;5051237;28;20470;-71
2023/08/21 00:58:44;;;;;;;11.77;5.25;;;;;;;;;;5052916;28;20048;-70
2023/08/21 01:01:12;;;;;;;13.65;5.10;;;;;;;;;;5037443;28;20029;-70
2023/08/21 01:03:38;;;;;;;14.55;5.38;;;;;;;;;;5032153;28;20037;-71
2023/08/21 01:06:03;;;;;;;7.45;4.45;;;;;;;;;;5033208;28;20056;-71
2023/08/21 01:08:32;;;;;;;9.05;4.57;;;;;;;;;;5049441;28;20033;-71
2023/08/21 01:10:58;;;;;;;8.88;4.70;;;;;;;;;;5033278;28;20120;-71
2023/08/21 01:13:34;;;;;;;8.38;5.00;;;;;;;;;;5030959;28;20535;-72
2023/08/21 01:16:00;;;;;;;9.35;4.70;;;;;;;;;;5033852;28;20068;-71
2023/08/21 01:18:28;;;;;;;6.85;4.32;;;;;;;;;;5031604;28;20037;-71
2023/08/21 01:20:54;;;;;;;9.07;4.28;;;;;;;;;;5032463;28;20472;-71
2023/08/21 01:23:36;;;;;;;9.60;4.60;;;;;;;;;;5029179;28;20021;-71
2023/08/21 01:26:04;;;;;;;16.15;4.88;;;;;;;;;;5035443;28;20506;-71
2023/08/21 01:28:32;;;;;;;9.32;4.50;;;;;;;;;;5032439;28;20022;-70
2023/08/21 01:31:26;;;;;;;17.08;5.35;;;;;;;;;;5033522;28;20041;-71
2023/08/21 01:34:00;;;;;;;7.97;4.63;;;;;;;;;;5031358;28;20136;-71
2023/08/21 01:36:26;;;;;;;;;;;;;;;;;;5034404;28;20065;-71
2023/08/21 01:38:53;;;;;;;7.18;4.55;;;;;;;;;;5034259;28;20323;-70
2023/08/21 01:41:18;;;;;;;5.47;4.50;;;;;;;;;;5033966;28;20033;-71
2023/08/21 01:43:44;;;;;;;8.55;4.45;;;;;;;;;;5033981;28;20021;-71
2023/08/21 01:46:10;;;;;;;8.07;4.53;;;;;;;;;;5032499;28;20037;-71
2023/08/21 01:48:36;;;;;;;7.25;4.13;;;;;;;;;;5034601;28;20028;-71
2023/08/21 01:51:02;;;;;;;7.47;4.65;;;;;;;;;;5044079;28;20032;-70
2023/08/21 01:53:28;;;;;;;13.52;4.50;;;;;;;;;;5053706;28;20376;-71
2023/08/21 01:55:54;;;;;;;9.60;4.70;;;;;;;;;;5053330;28;20036;-71
2023/08/21 01:58:20;;;;;;;6.35;4.35;;;;;;;;;;5036104;28;20483;-69
2023/08/21 02:00:48;;;;;;;6.00;4.35;;;;;;;;;;5054266;28;20032;-70
2023/08/21 02:03:14;;;;;;;8.75;4.50;;;;;;;;;;5046300;28;20021;-70
2023/08/21 02:05:40;;;;;;;8.45;4.05;;;;;;;;;;5040183;28;20090;-71
2023/08/21 02:08:09;;;;;;;7.55;4.32;;;;;;;;;;5042468;28;20024;-70
2023/08/21 02:10:34;;;;;;;8.52;4.90;;;;;;;;;;5038925;28;20034;-69
2023/08/21 02:13:00;;;;;;;12.10;4.90;;;;;;;;;;5045528;28;20029;-70
2023/08/21 02:15:26;;;;;;;10.93;4.72;;;;;;;;;;5052209;28;20486;-71
2023/08/21 02:17:51;;;;;;;6.30;4.20;;;;;;;;;;5047811;28;20033;-71
2023/08/21 02:20:17;;;;;;;7.47;4.85;;;;;;;;;;5030838;28;20037;-71
2023/08/21 02:22:44;;;;;;;9.02;5.00;;;;;;;;;;5048504;28;20043;-70
2023/08/21 02:25:10;;;;;;;12.07;4.63;;;;;;;;;;5031440;28;20554;-70
2023/08/21 02:27:36;;;;;;;12.95;4.68;;;;;;;;;;5031409;28;20066;-71
2023/08/21 02:30:03;;;;;;;11.02;5.07;;;;;;;;;;5031481;28;20411;-71
2023/08/21 02:32:29;;;;;;;11.45;5.45;;;;;;;;;;5031543;28;20018;-70
2023/08/21 02:34:55;;;;;;;11.05;4.88;;;;;;;;;;5026023;28;20037;-70
2023/08/21 02:37:21;;;;;;;11.75;5.20;;;;;;;;;;5032411;28;20112;-70
2023/08/21 02:39:47;;;;;;;10.52;4.97;;;;;;;;;;5041096;28;20401;-70
2023/08/21 02:42:13;;;;;;;9.68;5.32;;;;;;;;;;5050987;28;20021;-70
2023/08/21 02:44:39;;;;;;;7.75;5.18;;;;;;;;;;5031755;28;20095;-70
2023/08/21 02:47:05;;;;;;;12.02;5.38;;;;;;;;;;5030770;28;20045;-70
2023/08/21 02:49:31;;;;;;;9.93;4.90;;;;;;;;;;5020289;28;20057;-71
2023/08/21 02:51:56;;;;;;;8.60;4.80;;;;;;;;;;5012912;28;20033;-70
2023/08/21 02:54:23;;;;;;;12.75;5.60;;;;;;;;;;5036589;28;20048;-70
2023/08/21 02:56:49;;;;;;;6.65;4.90;;;;;;;;;;5040418;28;20040;-71
2023/08/21 02:59:14;;;;;;;11.95;5.70;;;;;;;;;;5039220;28;20037;-71
2023/08/21 03:01:40;;;;;;;9.75;4.95;;;;;;;;;;5026521;28;20575;-71
2023/08/21 03:04:06;;;;;;;7.35;4.53;;;;;;;;;;5023822;28;20111;-71
2023/08/21 03:06:32;;;;;;;6.57;4.65;;;;;;;;;;5009011;28;20026;-71
2023/08/21 03:08:58;;;;;;;10.73;5.15;;;;;;;;;;5017952;28;20487;-71
2023/08/21 03:11:24;;;;;;;11.52;5.30;;;;;;;;;;5010573;28;20095;-71
2023/08/21 03:13:51;;;;;;;7.30;5.40;;;;;;;;;;5028433;28;20552;-71
2023/08/21 03:16:17;;;;;;;7.50;4.32;;;;;;;;;;5032912;28;20029;-70
2023/08/21 03:19:00;;;;;;;10.80;5.32;;;;;;;;;;5028388;28;20488;-71
2023/08/21 03:21:28;;;;;;;8.63;4.90;;;;;;;;;;5007442;28;20048;-72
2023/08/21 03:23:56;;;;;;;16.65;5.50;;;;;;;;;;5023792;28;20057;-71
2023/08/21 03:26:23;;;;;;;15.95;5.57;;;;;;;;;;5023467;28;20064;-71
2023/08/21 03:28:50;;;;;;;9.48;5.00;;;;;;;;;;5014123;28;20025;-70
2023/08/21 03:31:16;;;;;;;9.25;5.00;;;;;;;;;;5026930;28;20040;-71
2023/08/21 03:33:42;;;;;;;8.48;4.88;;;;;;;;;;5022959;28;20022;-71
2023/08/21 03:36:08;;;;;;;16.08;5.95;;;;;;;;;;5023054;28;20496;-71
2023/08/21 03:38:35;;;;;;;9.35;5.22;;;;;;;;;;5023477;28;20562;-71
2023/08/21 03:41:01;;;;;;;8.15;5.07;;;;;;;;;;5007205;28;20119;-70
2023/08/21 03:43:26;;;;;;;15.88;6.20;;;;;;;;;;5010069;28;20029;-71
2023/08/21 03:45:52;;;;;;;12.07;5.38;;;;;;;;;;5043567;28;20060;-71
2023/08/21 03:48:18;;;;;;;8.70;5.68;;;;;;;;;;5031307;28;20021;-70
2023/08/21 03:50:44;;;;;;;9.45;5.22;;;;;;;;;;5026847;28;20047;-70
2023/08/21 03:53:11;;;;;;;12.10;5.60;;;;;;;;;;5028386;28;20051;-71
2023/08/21 03:55:37;;;;;;;11.85;5.70;;;;;;;;;;5026351;28;20525;-71
2023/08/21 03:58:03;;;;;;;8.75;5.28;;;;;;;;;;5026671;28;20449;-71
2023/08/21 04:00:29;;;;;;;9.57;5.43;;;;;;;;;;5027958;28;20029;-70
2023/08/21 04:02:55;;;;;;;10.18;5.90;;;;;;;;;;5027486;28;20032;-71
2023/08/21 04:05:21;;;;;;;12.32;6.05;;;;;;;;;;5025349;28;20065;-72
2023/08/21 04:07:47;;;;;;;11.68;6.07;;;;;;;;;;5009276;28;20078;-71
2023/08/21 04:10:13;;;;;;;10.20;5.40;;;;;;;;;;5009952;28;20144;-71
2023/08/21 04:12:39;;;;;;;9.95;5.28;;;;;;;;;;5011312;28;20511;-70
2023/08/21 04:15:06;;;;;;;8.05;4.97;;;;;;;;;;5011320;28;20037;-70
2023/08/21 04:17:31;;;;;;;13.50;4.90;;;;;;;;;;5031064;28;20033;-71
2023/08/21 04:19:58;;;;;;;10.48;5.13;;;;;;;;;;5031553;28;20060;-71
2023/08/21 04:22:24;;;;;;;14.35;5.75;;;;;;;;;;5024812;28;20025;-71
2023/08/21 04:24:50;;;;;;;10.70;5.45;;;;;;;;;;5031423;28;20044;-70
2023/08/21 04:27:16;;;;;;;11.77;5.70;;;;;;;;;;5029812;28;20018;-70
2023/08/21 04:29:41;;;;;;;10.10;5.85;;;;;;;;;;5039886;28;20033;-71
2023/08/21 04:32:07;;;;;;;10.02;5.40;;;;;;;;;;5039316;28;20096;-70
2023/08/21 04:34:33;;;;;;;9.15;5.10;;;;;;;;;;5030087;28;20033;-70
2023/08/21 04:36:59;;;;;;;7.28;5.15;;;;;;;;;;5029798;28;20021;-70
2023/08/21 04:39:25;;;;;;;15.77;6.22;;;;;;;;;;5038242;28;20433;-71
2023/08/21 04:41:53;;;;;;;9.77;5.47;;;;;;;;;;5013441;28;20087;-71
2023/08/21 04:44:19;;;;;;;19.38;5.80;;;;;;;;;;5022482;28;20131;-70
2023/08/21 04:46:51;;;;;;;13.40;5.35;;;;;;;;;;5025645;28;20021;-70
2023/08/21 04:49:18;;;;;;;14.73;4.85;;;;;;;;;;5029009;28;20098;-71
2023/08/21 04:51:43;;;;;;;15.82;5.50;;;;;;;;;;5037608;28;20478;-70
2023/08/21 04:54:10;;;;;;;15.70;6.10;;;;;;;;;;5029371;28;20030;-70
2023/08/21 04:56:35;;;;;;;18.58;6.38;;;;;;;;;;5020463;28;20316;-71
2023/08/21 04:59:02;;;;;;;17.02;5.82;;;;;;;;;;5012567;28;20037;-69
2023/08/21 05:01:29;;;;;;;17.10;5.03;;;;;;;;;;5028575;28;20022;-70
2023/08/21 05:03:57;;;;;;;14.82;5.13;;;;;;;;;;5039703;28;20026;-70
2023/08/21 05:06:23;;;;;;;13.25;4.85;;;;;;;;;;5051074;28;20032;-71
2023/08/21 05:08:50;;;;;;;12.77;5.07;;;;;;;;;;5038070;28;20034;-71
2023/08/21 05:11:16;;;;;;;23.95;5.78;;;;;;;;;;5032051;28;20025;-70
2023/08/21 05:13:42;;;;;;;13.13;5.28;;;;;;;;;;5034736;28;20057;-70
2023/08/21 05:16:10;;;;;;;14.27;5.10;;;;;;;;;;5032884;28;20029;-70
2023/08/21 05:18:38;;;;;;;17.50;5.30;;;;;;;;;;5031243;28;20072;-71
2023/08/21 05:21:04;;;;;;;14.23;4.90;;;;;;;;;;5030861;28;20120;-70
2023/08/21 05:23:30;;;;;;;13.75;5.47;;;;;;;;;;5033860;28;20029;-70
2023/08/21 05:26:01;;;;;;;12.95;5.07;;;;;;;;;;5032041;28;20079;-71
2023/08/21 05:28:27;;;;;;;12.35;4.80;;;;;;;;;;5032965;28;20391;-70
2023/08/21 05:30:53;;;;;;;10.57;4.65;;;;;;;;;;5034742;28;20017;-70
2023/08/21 05:33:20;;;;;;;11.93;4.63;;;;;;;;;;5035035;28;20040;-69
2023/08/21 05:35:48;;;;;;;12.43;5.65;;;;;;;;;;5029586;28;20455;-71
2023/08/21 05:38:14;;;;;;;9.45;5.07;;;;;;;;;;5039059;28;20033;-71
2023/08/21 05:40:42;;;;;;;17.02;5.38;;;;;;;;;;5025128;28;20022;-69
2023/08/21 05:43:09;;;;;;;15.10;5.40;;;;;;;;;;5033905;28;20040;-71
2023/08/21 05:45:36;;;;;;;14.82;4.88;;;;;;;;;;5030214;28;20014;-71
2023/08/21 05:48:02;;;;;;;7.63;4.55;;;;;;;;;;5038202;28;20025;-70
2023/08/21 05:50:29;;;;;;;12.63;5.28;;;;;;;;;;5030579;28;20340;-70
2023/08/21 05:52:54;;;;;;;11.57;5.97;;;;;;;;;;5031563;28;20034;-70
2023/08/21 05:55:21;;;;;;;16.17;5.50;;;;;;;;;;5034675;28;20637;-71
2023/08/21 05:57:47;;;;;;;22.42;4.75;;;;;;;;;;5038765;28;20034;-70
2023/08/21 06:00:14;;;;;;;8.48;4.53;;;;;;;;;;5033116;28;20173;-70
2023/08/21 06:02:42;;;;;;;10.73;4.13;;;;;;;;;;5035654;28;20484;-70
2023/08/21 06:05:12;;;;;;;10.63;4.57;;;;;;;;;;5034203;28;20443;-71
2023/08/21 06:07:40;;;;;;;5.65;3.80;;;;;;;;;;5030679;28;20032;-69
2023/08/21 06:10:07;;;;;;;10.68;3.90;;;;;;;;;;5036627;28;20060;-70
2023/08/21 06:12:33;;;;;;;9.15;4.15;;;;;;;;;;5033278;28;20039;-70
2023/08/21 06:14:58;;;;;;;9.15;3.95;;;;;;;;;;5016769;28;20120;-70
2023/08/21 06:17:24;;;;;;;10.65;3.83;;;;;;;;;;5033625;28;20103;-71
2023/08/21 06:19:50;;;;;;;6.63;3.90;;;;;;;;;;5032519;28;20417;-70
2023/08/21 06:22:15;;;;;;;8.85;3.70;;;;;;;;;;5027168;28;20041;-69
2023/08/21 06:24:41;;;;;;;9.77;4.10;;;;;;;;;;5014224;28;20025;-69
2023/08/21 06:27:11;;;;;;;7.10;3.58;;;;;;;;;;5039029;28;20036;-69
2023/08/21 06:29:37;;;;;;;10.23;5.13;;;;;;;;;;5010074;28;20022;-69
2023/08/21 06:32:03;;;;;;;10.50;4.05;;;;;;;;;;5039645;28;20046;-70
2023/08/21 06:34:29;;;;;;;11.38;4.38;;;;;;;;;;5025988;28;20028;-71
2023/08/21 06:36:55;;;;;;;7.47;4.03;;;;;;;;;;5025471;28;20099;-72
2023/08/21 06:39:21;;;;;;;8.60;3.95;;;;;;;;;;5051348;28;20036;-70
2023/08/21 06:41:47;;;;;;;8.50;3.88;;;;;;;;;;5052372;28;20044;-70
2023/08/21 06:44:18;;;;;;;12.52;4.15;;;;;;;;;;5050574;28;20124;-70
2023/08/21 06:46:43;;;;;;;11.68;3.78;;;;;;;;;;5050639;28;20096;-70
2023/08/21 06:49:09;;;;;;;10.25;3.70;;;;;;;;;;5034585;28;20040;-71
2023/08/21 06:51:35;;;;;;;7.55;3.78;;;;;;;;;;5052191;28;20037;-71
2023/08/21 06:54:01;;;;;;;5.97;3.60;;;;;;;;;;5042156;28;20494;-70
2023/08/21 06:56:27;;;;;;;9.20;3.95;;;;;;;;;;5032420;28;20037;-71
2023/08/21 06:58:54;;;;;;;15.82;4.50;;;;;;;;;;5032249;28;20036;-71
2023/08/21 07:01:21;;;;;;;11.43;3.95;;;;;;;;;;5032211;28;20037;-70
2023/08/21 07:03:47;;;;;;;10.38;3.83;;;;;;;;;;5032687;28;20394;-70
2023/08/21 07:06:12;;;;;;;8.48;4.30;;;;;;;;;;5030871;28;20041;-70
2023/08/21 07:08:40;;;;;;;12.05;3.80;;;;;;;;;;5032908;28;20101;-71
2023/08/21 07:11:08;;;;;;;5.90;3.63;;;;;;;;;;5032262;28;20029;-71
2023/08/21 07:13:34;;;;;;;10.50;4.20;;;;;;;;;;5031075;28;20499;-72
2023/08/21 07:16:04;;;;;;;6.60;3.88;;;;;;;;;;5032019;28;20110;-71
2023/08/21 07:18:33;;;;;;;6.00;3.70;;;;;;;;;;5031524;28;20109;-70
2023/08/21 07:20:59;;;;;;;10.00;3.88;;;;;;;;;;5046062;28;20032;-71
2023/08/21 07:23:25;;;;;;;5.70;3.55;;;;;;;;;;5032196;28;20119;-70
2023/08/21 07:25:51;;;;;;;5.97;3.95;;;;;;;;;;5031757;28;20029;-72
2023/08/21 07:28:17;;;;;;;5.40;3.03;;;;;;;;;;5031457;28;20075;-70
2023/08/21 07:30:42;;;;;;;10.60;3.60;;;;;;;;;;5030424;28;20491;-70
2023/08/21 07:33:08;;;;;;;5.07;3.60;;;;;;;;;;5031864;28;20041;-70
2023/08/21 07:35:34;;;;;;;8.88;3.80;;;;;;;;;;5031233;28;20279;-71
2023/08/21 07:38:00;;;;;;;6.15;3.30;;;;;;;;;;5031508;28;20038;-72
2023/08/21 07:40:25;;;;;;;9.05;3.00;;;;;;;;;;5031789;28;20025;-71
2023/08/21 07:42:51;;;;;;;8.27;3.45;;;;;;;;;;5031097;28;20099;-71
2023/08/21 07:45:17;;;;;;;10.80;3.25;;;;;;;;;;5029816;28;20111;-72
2023/08/21 07:47:43;;;;;;;6.03;3.38;;;;;;;;;;5031104;28;20064;-71
2023/08/21 07:50:09;;;;;;;6.55;3.17;;;;;;;;;;5029099;28;20132;-71
2023/08/21 07:52:35;;;;;;;7.90;3.00;;;;;;;;;;5030927;28;20411;-71
2023/08/21 07:55:01;;;;;;;7.35;3.03;;;;;;;;;;5030993;28;20048;-71
2023/08/21 07:57:30;;;;;;;6.53;2.80;;;;;;;;;;5030752;28;20037;-70
2023/08/21 07:59:56;;;;;;;13.32;3.72;;;;;;;;;;5031444;28;20059;-70
2023/08/21 08:02:23;;;;;;;7.05;3.40;;;;;;;;;;5029996;28;20052;-71
2023/08/21 08:04:48;;;;;;;4.93;2.75;;;;;;;;;;5030859;28;20112;-70
2023/08/21 08:07:14;;;;;;;8.63;3.10;;;;;;;;;;5030510;28;20121;-71
2023/08/21 08:09:40;;;;;;;7.05;3.30;;;;;;;;;;5031349;28;20037;-70
2023/08/21 08:12:06;;;;;;;8.23;3.22;;;;;;;;;;5030885;28;20085;-70
2023/08/21 08:14:32;;;;;;;6.22;3.10;;;;;;;;;;5032136;28;20078;-71
2023/08/21 08:16:57;;;;;;;5.85;3.00;;;;;;;;;;5030502;28;20268;-71
2023/08/21 08:19:23;;;;;;;5.68;2.83;;;;;;;;;;5030653;28;20044;-71
2023/08/21 08:21:49;;;;;;;4.82;2.85;;;;;;;;;;5029804;28;20399;-69
2023/08/21 08:24:14;;;;;;;6.95;2.72;;;;;;;;;;5030737;28;20028;-73
2023/08/21 08:26:42;;;;;;;7.50;2.50;;;;;;;;;;5030204;28;20120;-71
2023/08/21 08:29:08;;;;;;;4.38;2.40;;;;;;;;;;5029419;28;20075;-72
2023/08/21 08:31:33;;;;;;;6.18;2.88;;;;;;;;;;5029143;28;20045;-70
2023/08/21 08:33:59;;;;;;;7.47;2.65;;;;;;;;;;5029942;28;20025;-69
2023/08/21 08:36:25;;;;;;;5.50;2.67;;;;;;;;;;5034215;28;20055;-69
2023/08/21 08:38:51;;;;;;;8.00;2.90;;;;;;;;;;5031353;28;20075;-69
2023/08/21 08:41:30;;;;;;;6.65;2.72;;;;;;;;;;5029864;28;20029;-73
2023/08/21 08:43:58;;;;;;;12.52;2.63;;;;;;;;;;5027062;28;20039;-71
2023/08/21 08:46:25;;;;;;;7.22;2.53;;;;;;;;;;5030175;28;20013;-70
2023/08/21 08:48:52;;;;;;;7.68;2.65;;;;;;;;;;5030189;28;20025;-71
2023/08/21 08:51:18;;;;;;;7.70;2.95;;;;;;;;;;5030336;28;20080;-70
2023/08/21 08:53:44;;;;;;;7.53;2.38;;;;;;;;;;5030238;28;20045;-70
2023/08/21 08:56:10;;;;;;;6.22;2.40;;;;;;;;;;5028397;28;20022;-74
2023/08/21 08:58:36;;;;;;;3.75;2.47;;;;;;;;;;5040485;28;20036;-70
2023/08/21 09:01:02;;;;;;;6.38;2.22;;;;;;;;;;5033983;28;20323;-72
2023/08/21 09:03:29;;;;;;;3.80;2.70;;;;;;;;;;5032031;28;20036;-70
2023/08/21 09:05:55;;;;;;;5.97;2.25;;;;;;;;;;5032911;28;20029;-70
2023/08/21 09:08:21;;;;;;;5.45;2.50;;;;;;;;;;5040468;28;20033;-71
2023/08/21 09:10:46;;;;;;;4.32;2.38;;;;;;;;;;5037288;28;20435;-70
2023/08/21 09:13:18;;;;;;;4.28;2.25;;;;;;;;;;5040076;28;20040;-70
2023/08/21 09:15:47;;;;;;;7.78;2.25;;;;;;;;;;5039134;28;20060;-72
2023/08/21 09:18:14;;;;;;;6.28;1.95;;;;;;;;;;5033237;28;20032;-71
2023/08/21 09:20:41;;;;;;;11.30;2.65;;;;;;;;;;5033477;28;20041;-72
2023/08/21 09:23:08;;;;;;;4.80;2.42;;;;;;;;;;5042322;28;20036;-71
2023/08/21 09:25:35;;;;;;;7.25;2.05;;;;;;;;;;5041710;28;20036;-72
2023/08/21 09:28:04;;;;;;;9.18;3.33;;;;;;;;;;5032268;28;20387;-73
2023/08/21 09:30:42;;;;;;;4.38;2.33;;;;;;;;;;5027209;28;20045;-72
2023/08/21 09:33:09;;;;;;;4.20;2.30;;;;;;;;;;5039679;28;20454;-71
2023/08/21 09:35:36;;;;;;;4.13;2.20;;;;;;;;;;5031885;28;20097;-71
2023/08/21 09:38:02;;;;;;;8.80;2.67;;;;;;;;;;5028171;28;20416;-71
2023/08/21 09:40:28;;;;;;;6.63;2.30;;;;;;;;;;5029586;28;20064;-72
2023/08/21 09:42:55;;;;;;;6.25;2.38;;;;;;;;;;5029885;28;20103;-73
2023/08/21 09:45:25;;;;;;;5.32;2.72;;;;;;;;;;5028331;28;20384;-71
2023/08/21 09:47:54;;;;;;;7.75;2.40;;;;;;;;;;5029754;28;20040;-72
2023/08/21 09:50:21;;;;;;;7.43;2.20;;;;;;;;;;5029141;28;20572;-73
2023/08/21 09:52:47;;;;;;;6.85;1.80;;;;;;;;;;5029748;28;20041;-71
2023/08/21 09:55:14;;;;;;;4.07;2.20;;;;;;;;;;5029423;28;20025;-70
2023/08/21 09:57:42;;;;;;;3.58;2.10;;;;;;;;;;5029207;28;20041;-70
2023/08/21 10:00:20;;;;;;;7.00;2.20;;;;;;;;;;5029164;28;20025;-72
2023/08/21 10:02:50;;;;;;;6.28;2.47;;;;;;;;;;5029734;28;20112;-72
2023/08/21 10:05:17;;;;;;;9.40;2.00;;;;;;;;;;5028949;28;20049;-73
2023/08/21 10:07:49;;;;;;;5.00;2.03;;;;;;;;;;5026696;28;20498;-71
2023/08/21 10:10:16;;;;;;;6.85;2.42;;;;;;;;;;5028261;28;20467;-70
2023/08/21 10:12:42;;;;;;;5.35;2.70;;;;;;;;;;5027252;28;20036;-74
2023/08/21 10:15:09;;;;;;;8.95;2.53;;;;;;;;;;5026186;28;20040;-72
2023/08/21 10:17:36;;;;;;;5.28;2.40;;;;;;;;;;5028788;28;20026;-72
2023/08/21 10:20:04;;;;;;;6.03;2.10;;;;;;;;;;5028836;28;20529;-72
2023/08/21 10:22:46;;;;;;;5.93;2.88;;;;;;;;;;5029195;28;20037;-71
2023/08/21 10:25:22;;;;;;;8.98;2.58;;;;;;;;;;5029275;28;20052;-74
2023/08/21 10:27:51;;;;;;;7.43;2.40;;;;;;;;;;5028652;28;20495;-72
2023/08/21 10:30:28;;;;;;;3.80;2.00;;;;;;;;;;5026600;28;20072;-72
2023/08/21 10:32:55;;;;;;;7.03;2.20;;;;;;;;;;5030788;28;20051;-72
2023/08/21 10:35:23;;;;;;;5.53;2.38;;;;;;;;;;5016902;28;20099;-71
2023/08/21 10:38:08;;;;;;;6.70;1.80;;;;;;;;;;5030891;28;20036;-71
2023/08/21 10:40:35;;;;;;;3.92;2.25;;;;;;;;;;5033918;28;20500;-72
2023/08/21 10:43:02;;;;;;;6.43;2.75;;;;;;;;;;5045659;28;20529;-71
2023/08/21 10:45:29;;;;;;;5.07;2.42;;;;;;;;;;5026298;28;20052;-71
2023/08/21 10:47:58;;;;;;;7.22;2.20;;;;;;;;;;5038355;28;20233;-73
2023/08/21 10:50:23;;;;;;;6.95;2.00;;;;;;;;;;5028701;28;20041;-72
2023/08/21 10:52:52;;;;;;;5.32;1.80;;;;;;;;;;5036186;28;20033;-72
2023/08/21 10:55:18;;;;;;;10.10;2.38;;;;;;;;;;5026673;28;20037;-72
2023/08/21 10:57:47;;;;;;;5.03;1.70;;;;;;;;;;5034538;28;20210;-74
2023/08/21 11:00:15;;;;;;;6.13;1.60;;;;;;;;;;5024500;28;20112;-72
2023/08/21 11:02:46;;;;;;;6.78;1.38;;;;;;;;;;5025060;28;20245;-72
2023/08/21 11:05:13;;;;;;;3.42;1.50;;;;;;;;;;5024670;28;20044;-72
2023/08/21 11:07:48;;;;;;;2.90;1.40;;;;;;;;;;5030068;28;20021;-73
2023/08/21 11:10:21;;;;;;;5.72;2.20;;;;;;;;;;5030148;28;20041;-72
2023/08/21 11:12:59;;;;;;;5.15;1.80;;;;;;;;;;5034008;28;20033;-71
2023/08/21 11:15:27;;;;;;;3.00;1.70;;;;;;;;;;5032555;28;20041;-73
2023/08/21 11:17:57;;;;;;;4.75;1.60;;;;;;;;;;5033393;28;20026;-72
2023/08/21 11:20:30;;;;;;;4.72;1.45;;;;;;;;;;5025905;28;20503;-72
2023/08/21 11:22:58;;;;;;;5.45;1.60;;;;;;;;;;5027520;28;20048;-72
2023/08/21 11:25:24;;;;;;;3.72;1.50;;;;;;;;;;5027570;28;20021;-72
2023/08/21 11:27:50;;;;;;;7.00;1.60;;;;;;;;;;5027726;28;20094;-73
2023/08/21 11:30:16;;;;;;;4.30;1.30;;;;;;;;;;5027054;28;20075;-72
2023/08/21 11:32:41;;;;;;;3.22;1.63;;;;;;;;;;5026371;28;20550;-71
2023/08/21 11:35:08;;;;;;;2.85;1.40;;;;;;;;;;5027315;28;20108;-73
2023/08/21 11:37:34;;;;;;;8.15;1.80;;;;;;;;;;5027577;28;20037;-73
2023/08/21 11:40:07;;;;;;;3.95;1.50;;;;;;;;;;5027513;28;20028;-72
2023/08/21 11:42:33;;;;;;;3.53;1.50;;;;;;;;;;5028155;28;20113;-71
2023/08/21 11:45:00;;;;;;;3.92;1.45;;;;;;;;;;5028076;28;20544;-73
2023/08/21 11:47:34;;;;;;;5.50;1.30;;;;;;;;;;5024244;28;20040;-73
2023/08/21 11:50:07;;;;;;;2.47;1.17;;;;;;;;;;5033503;28;20045;-74
2023/08/21 11:52:35;;;;;;;3.22;1.42;;;;;;;;;;5038053;28;20411;-73
2023/08/21 11:55:01;;;;;;;4.43;1.23;;;;;;;;;;5037427;28;20033;-73
2023/08/21 11:57:29;;;;;;;4.13;1.50;;;;;;;;;;5035536;28;20280;-72
2023/08/21 11:59:56;;;;;;;7.30;1.65;;;;;;;;;;5033307;28;20032;-72
2023/08/21 12:02:23;;;;;;;2.83;1.13;;;;;;;;;;5027214;28;20494;-73
2023/08/21 12:05:15;;;;;;;2.63;1.20;;;;;;;;;;5031253;28;20030;-73
2023/08/21 12:07:41;;;;;;;3.90;1.83;;;;;;;;;;5035390;28;20490;-72
2023/08/21 12:10:07;;;;;;;5.15;2.05;;;;;;;;;;5033175;28;20071;-72
2023/08/21 12:12:33;;;;;;;3.78;1.30;;;;;;;;;;5034068;28;20044;-73
2023/08/21 12:14:59;;;;;;;4.50;1.67;;;;;;;;;;5024688;28;20034;-71
2023/08/21 12:17:24;;;;;;;8.15;1.50;;;;;;;;;;5035922;28;20037;-71
2023/08/21 12:19:50;;;;;;;3.95;1.40;;;;;;;;;;5040980;28;20052;-69
2023/08/21 12:22:16;;;;;;;4.30;1.35;;;;;;;;;;5017071;28;20039;-68
2023/08/21 12:24:41;;;;;;;3.50;1.20;;;;;;;;;;5037448;28;20068;-70
2023/08/21 12:27:08;;;;;;;5.97;1.77;;;;;;;;;;5040954;28;20451;-70
2023/08/21 12:29:34;;;;;;;3.80;1.20;;;;;;;;;;5035852;28;20025;-70
2023/08/21 12:32:00;;;;;;;4.22;1.35;;;;;;;;;;5026809;28;20082;-69
2023/08/21 12:34:26;;;;;;;6.40;1.65;;;;;;;;;;5030281;28;20029;-71
2023/08/21 12:36:52;;;;;;;4.25;2.22;;;;;;;;;;5030857;28;20170;-69
2023/08/21 12:39:18;;;;;;;4.25;1.40;;;;;;;;;;5029804;28;20029;-70
2023/08/21 12:41:43;;;;;;;3.95;1.35;;;;;;;;;;5029484;28;20048;-69
2023/08/21 12:44:10;;;;;;;5.00;1.70;;;;;;;;;;5029319;28;20025;-68
2023/08/21 12:46:36;;;;;;;3.15;1.25;;;;;;;;;;5035092;28;20105;-68
2023/08/21 12:49:02;;;;;;;2.83;1.30;;;;;;;;;;5034732;28;20029;-70
2023/08/21 12:51:28;;;;;;;2.95;1.30;;;;;;;;;;5039752;28;20053;-69
2023/08/21 12:53:54;;;;;;;6.10;2.13;;;;;;;;;;5031688;28;20510;-70
2023/08/21 12:56:20;;;;;;;7.85;1.70;;;;;;;;;;5037441;28;20037;-69
2023/08/21 12:58:47;;;;;;;3.83;1.50;;;;;;;;;;5029795;28;20029;-69
2023/08/21 13:01:14;;;;;;;4.85;1.40;;;;;;;;;;5038341;28;20033;-69
2023/08/21 13:03:47;;;;;;;6.35;1.73;;;;;;;;;;5029951;28;20452;-68
2023/08/21 13:06:13;;;;;;;;;;;;;;;;;;5030249;28;20048;-69
2023/08/21 13:08:38;;;;;;;4.25;1.25;;;;;;;;;;5029114;28;19929;-70
2023/08/21 13:11:05;;;;;;;6.43;1.60;;;;;;;;;;5030835;28;20029;-71
2023/08/21 13:13:31;;;;;;;4.05;1.40;;;;;;;;;;5030376;28;20230;-69
2023/08/21 13:15:58;;;;;;;5.95;1.40;;;;;;;;;;5029704;28;20033;-70
2023/08/21 13:18:24;;;;;;;3.22;1.33;;;;;;;;;;5037873;28;20104;-70
2023/08/21 13:20:49;;;;;;;2.85;1.50;;;;;;;;;;5043749;28;20024;-70
2023/08/21 13:23:15;;;;;;;3.60;1.10;;;;;;;;;;5029976;28;20030;-70
2023/08/21 13:25:41;;;;;;;6.93;1.58;;;;;;;;;;5040363;28;20045;-69
2023/08/21 13:28:07;;;;;;;5.60;1.58;;;;;;;;;;5044429;28;20444;-70
2023/08/21 13:30:33;;;;;;;6.70;1.73;;;;;;;;;;5028402;28;20377;-70
2023/08/21 13:32:58;;;;;;;4.85;1.60;;;;;;;;;;5030078;28;20480;-69
2023/08/21 13:35:24;;;;;;;4.95;1.55;;;;;;;;;;5030305;28;20812;-71
2023/08/21 13:37:50;;;;;;;3.63;1.50;;;;;;;;;;5029523;28;20032;-71
2023/08/21 13:40:16;;;;;;;2.15;1.30;;;;;;;;;;5030252;28;20714;-69
2023/08/21 13:42:44;;;;;;;3.30;1.42;;;;;;;;;;5029392;28;20068;-69
2023/08/21 13:45:12;;;;;;;3.30;1.45;;;;;;;;;;5029452;28;20072;-70
2023/08/21 13:47:48;;;;;;;5.53;1.52;;;;;;;;;;5029558;28;20021;-70
2023/08/21 13:50:15;;;;;;;2.72;1.45;;;;;;;;;;5029786;28;20030;-68
2023/08/21 13:52:41;;;;;;;2.30;1.30;;;;;;;;;;5029842;28;20025;-69
2023/08/21 13:55:09;;;;;;;4.05;1.80;;;;;;;;;;5027782;28;20045;-69
2023/08/21 13:57:35;;;;;;;2.88;1.45;;;;;;;;;;5026919;28;20056;-71
2023/08/21 14:00:07;;;;;;;4.38;1.58;;;;;;;;;;5042160;28;20029;-69
2023/08/21 14:02:35;;;;;;;7.10;2.00;;;;;;;;;;5047535;28;20474;-69
2023/08/21 14:05:03;;;;;;;3.45;1.70;;;;;;;;;;5046974;28;20502;-69
2023/08/21 14:07:28;;;;;;;3.88;1.25;;;;;;;;;;5047477;28;20061;-69
2023/08/21 14:09:54;;;;;;;3.38;1.60;;;;;;;;;;5047677;28;20052;-69
2023/08/21 14:12:20;;;;;;;4.10;1.85;;;;;;;;;;5048400;28;20117;-70
2023/08/21 14:14:46;;;;;;;4.30;1.70;;;;;;;;;;5040735;28;20021;-69
2023/08/21 14:17:11;;;;;;;2.03;1.30;;;;;;;;;;5048295;28;20048;-70
2023/08/21 14:19:37;;;;;;;5.93;1.67;;;;;;;;;;5048326;28;20025;-68
2023/08/21 14:22:03;;;;;;;4.68;1.58;;;;;;;;;;5048033;28;20037;-70
2023/08/21 14:24:28;;;;;;;2.47;1.40;;;;;;;;;;5048002;28;20025;-69
2023/08/21 14:26:54;;;;;;;4.85;1.58;;;;;;;;;;5046767;28;20123;-71
2023/08/21 14:29:21;;;;;;;4.25;1.88;;;;;;;;;;5039700;28;20033;-72
2023/08/21 14:31:48;;;;;;;6.70;1.55;;;;;;;;;;5028444;28;20458;-71
2023/08/21 14:34:15;;;;;;;3.10;1.92;;;;;;;;;;5028537;28;20372;-71
2023/08/21 14:36:42;;;;;;;3.58;1.63;;;;;;;;;;5028097;28;20404;-73
2023/08/21 14:39:10;;;;;;;4.53;1.60;;;;;;;;;;5026470;28;20072;-72